Terminal Aerodrome Forecast
Issued by NWS

Home | Current Version | Previous Version | Text Only | Print | Product List | Glossary On
Versions: 1 2 3 4 5 6 7 8 9 10 11 12 13 14 15 16 17 18 19
000
FTUS41 KBTV 281127
TAFSLK
TAF
KSLK 281127Z 2812/2912 24008KT P6SM FEW020 BKN060
     FM281600 24011G19KT P6SM SCT070
     FM290000 24005KT P6SM FEW200
     FM290700 VRB03KT P6SM BKN100=

USA.gov is the U.S. government's official web portal to all federal, state and local government web resources and services.